createdAt,value
2022-08-23T00:01:43.609Z,95574.19
2022-08-23T00:06:46.468Z,95563.88
2022-08-23T00:11:49.194Z,95562.56
2022-08-23T00:16:52.065Z,95571.28
2022-08-23T00:21:54.921Z,95565.47
2022-08-23T00:27:04.970Z,95564.47
2022-08-23T00:32:07.931Z,95568.59
2022-08-23T00:37:10.711Z,95569.16
2022-08-23T00:42:27.290Z,95561.34
2022-08-23T00:47:43.078Z,95559.34
2022-08-23T00:52:48.757Z,95559.22
2022-08-23T00:57:51.597Z,95557.13
2022-08-23T01:02:54.977Z,95574.22
2022-08-23T01:07:57.819Z,95566.66
2022-08-23T01:13:00.997Z,95579.25
2022-08-23T01:18:03.862Z,95580.53
2022-08-23T01:23:07.353Z,95572.88
2022-08-23T01:28:10.543Z,95577.28
2022-08-23T01:33:13.410Z,95577.13
2022-08-23T01:38:26.300Z,95583.25
2022-08-23T01:43:34.941Z,95586.47
2022-08-23T01:48:37.672Z,95582.25
2022-08-23T01:53:40.874Z,95593.66
2022-08-23T01:58:43.653Z,95596.59
2022-08-23T02:03:46.866Z,95597.09
2022-08-23T02:09:05.683Z,95598.28
2022-08-23T02:14:20.387Z,95606.22
2022-08-23T02:19:23.205Z,95605.53
2022-08-23T02:24:26.117Z,95608.41
2022-08-23T02:29:29.795Z,95609.88
2022-08-23T02:34:33.534Z,95616.19
2022-08-23T02:39:38.870Z,95616.34
2022-08-23T02:44:42.383Z,95616.97
2022-08-23T02:49:46.185Z,95622.91
2022-08-23T02:54:48.906Z,95618.34
2022-08-23T02:59:52.337Z,95630.53
2022-08-23T03:04:55.495Z,95636.53
2022-08-23T03:09:58.617Z,95628.50
2022-08-23T03:15:01.486Z,95643.88
2022-08-23T03:20:05.029Z,95643.09
2022-08-23T03:25:11.998Z,95650.28
2022-08-23T03:30:19.296Z,95649.72
2022-08-23T03:35:22.635Z,95649.41
2022-08-23T03:40:25.459Z,95659.00
2022-08-23T03:45:28.297Z,95653.88
2022-08-23T03:50:31.017Z,95663.59
2022-08-23T03:55:34.545Z,95668.66
2022-08-23T04:00:45.061Z,95663.78
2022-08-23T04:05:48.021Z,95664.56
2022-08-23T04:10:51.328Z,95679.41
2022-08-23T04:15:55.235Z,95683.13
2022-08-23T04:20:58.536Z,95683.38
2022-08-23T04:26:02.936Z,95688.81
2022-08-23T04:31:05.789Z,95687.13
2022-08-23T04:36:08.633Z,95696.56
2022-08-23T04:41:29.185Z,95683.00
2022-08-23T04:46:32.528Z,95696.88
2022-08-23T04:51:37.001Z,95697.19
2022-08-23T04:56:39.854Z,95695.69
2022-08-23T05:01:42.846Z,95693.25
2022-08-23T05:06:46.455Z,95694.34
2022-08-23T05:11:50.390Z,95707.34
2022-08-23T05:16:53.595Z,95713.38
2022-08-23T05:21:57.169Z,95709.66
2022-08-23T05:27:00.768Z,95718.22
2022-08-23T05:32:04.191Z,95728.22
2022-08-23T05:37:07.956Z,95728.22
2022-08-23T05:42:11.240Z,95728.22
2022-08-23T05:47:15.184Z,95735.09
2022-08-23T05:52:20.130Z,95734.78
2022-08-23T05:57:23.465Z,95745.31
2022-08-23T06:02:27.416Z,95747.09
2022-08-23T06:07:31.275Z,95745.75
2022-08-23T06:12:34.863Z,95741.13
2022-08-23T06:17:38.255Z,95746.22
2022-08-23T06:22:41.731Z,95751.97
2022-08-23T06:27:44.935Z,95755.94
2022-08-23T06:32:48.755Z,95746.53
2022-08-23T06:37:52.073Z,95743.72
2022-08-23T06:42:55.685Z,95750.56
2022-08-23T06:47:58.903Z,95748.38
2022-08-23T06:53:02.219Z,95746.97
2022-08-23T06:58:10.657Z,95747.22
2022-08-23T07:03:16.958Z,95755.72
2022-08-23T07:08:21.213Z,95754.78
2022-08-23T07:13:24.596Z,95754.00
2022-08-23T07:18:27.797Z,95750.41
2022-08-23T07:23:33.300Z,95758.84
2022-08-23T07:28:36.585Z,95765.69
2022-08-23T07:33:39.785Z,95762.72
2022-08-23T07:38:45.458Z,95779.88
2022-08-23T07:43:48.730Z,95773.94
2022-08-23T07:48:54.809Z,95770.03
2022-08-23T07:53:58.602Z,95777.28
2022-08-23T07:59:02.519Z,95783.63
2022-08-23T08:04:05.755Z,95788.03
2022-08-23T08:09:08.936Z,95794.63
2022-08-23T08:14:12.151Z,95795.09
2022-08-23T08:19:15.916Z,95794.88
2022-08-23T08:24:22.085Z,95796.41
2022-08-23T08:29:25.709Z,95801.03
2022-08-23T08:34:28.861Z,95799.13
2022-08-23T08:39:32.454Z,95796.06
2022-08-23T08:44:36.814Z,95793.25
2022-08-23T08:49:40.034Z,95798.03
2022-08-23T08:54:48.011Z,95803.44
2022-08-23T08:59:51.564Z,95796.22
2022-08-23T09:04:54.791Z,95801.75
2022-08-23T09:09:57.976Z,95807.97
2022-08-23T09:15:01.605Z,95801.41
2022-08-23T09:20:05.333Z,95798.78
2022-08-23T09:25:10.804Z,95794.28
2022-08-23T09:30:17.882Z,95790.63
2022-08-23T09:35:21.221Z,95787.63
2022-08-23T09:40:25.630Z,95789.16
2022-08-23T09:45:33.116Z,95787.47
2022-08-23T09:50:39.020Z,95782.84
2022-08-23T09:55:42.403Z,95779.13
2022-08-23T10:00:45.637Z,95780.13
2022-08-23T10:05:48.954Z,95789.66
2022-08-23T10:10:52.161Z,95776.53
2022-08-23T10:15:55.450Z,95771.56
2022-08-23T10:20:58.680Z,95781.22
2022-08-23T10:26:01.938Z,95783.63
2022-08-23T10:31:05.595Z,95778.16
2022-08-23T10:36:09.268Z,95774.53
2022-08-23T10:41:12.537Z,95768.25
2022-08-23T10:46:16.142Z,95762.13
2022-08-23T10:51:23.195Z,95770.75
2022-08-23T10:56:35.342Z,95780.66
2022-08-23T11:01:38.711Z,95766.56
2022-08-23T11:06:42.224Z,95758.09
2022-08-23T11:11:45.535Z,95770.13
2022-08-23T11:16:48.857Z,95760.22
2022-08-23T11:21:52.615Z,95758.06
2022-08-23T11:26:56.029Z,95758.19
2022-08-23T11:31:59.481Z,95751.09
2022-08-23T11:37:03.346Z,95764.19
2022-08-23T11:42:07.106Z,95747.03
2022-08-23T11:47:10.303Z,95753.38
2022-08-23T11:52:13.654Z,95756.94
2022-08-23T11:57:17.083Z,95757.28
2022-08-23T12:02:20.472Z,95752.88
2022-08-23T12:07:23.997Z,95746.75
2022-08-23T12:12:28.300Z,95746.19
2022-08-23T12:17:34.014Z,95751.94
2022-08-23T12:22:44.583Z,95751.84
2022-08-23T12:27:49.888Z,95749.41
2022-08-23T12:32:53.301Z,95749.72
2022-08-23T12:37:56.742Z,95744.59
2022-08-23T12:43:00.218Z,95744.78
2022-08-23T12:48:03.575Z,95743.94
2022-08-23T12:53:07.283Z,95739.75
2022-08-23T12:58:10.660Z,95740.03
2022-08-23T13:03:13.983Z,95739.47
2022-08-23T13:08:17.440Z,95728.91
2022-08-23T13:13:20.780Z,95728.16
2022-08-23T13:18:25.698Z,95721.81
2022-08-23T13:23:28.940Z,95720.47
2022-08-23T13:28:32.745Z,95714.34
2022-08-23T13:33:35.932Z,95710.06
2022-08-23T13:38:39.307Z,95704.59
2022-08-23T13:43:43.066Z,95699.09
2022-08-23T13:48:46.561Z,95705.38
2022-08-23T13:53:50.008Z,95705.56
2022-08-23T13:58:53.482Z,95695.63
2022-08-23T14:03:56.909Z,95701.47
2022-08-23T14:09:00.266Z,95699.94
2022-08-23T14:14:03.487Z,95690.13
2022-08-23T14:24:30.325Z,95684.41
2022-08-23T14:29:33.540Z,95686.69
2022-08-23T14:34:37.020Z,95684.00
2022-08-23T14:39:40.224Z,95678.09
2022-08-23T14:44:43.497Z,95697.25
2022-08-23T14:49:48.997Z,95690.06
2022-08-23T14:54:54.158Z,95688.53
2022-08-23T14:59:59.053Z,95693.72
2022-08-23T15:05:02.494Z,95684.31
2022-08-23T15:10:05.915Z,95694.47
2022-08-23T15:15:09.350Z,95690.00
2022-08-23T15:20:15.891Z,95691.53
2022-08-23T15:25:20.064Z,95682.78
2022-08-23T15:30:23.488Z,95689.56
2022-08-23T15:35:26.830Z,95689.34
2022-08-23T15:40:30.763Z,95680.94
2022-08-23T15:45:34.344Z,95676.16
2022-08-23T15:50:37.621Z,95682.38
2022-08-23T15:55:40.863Z,95681.38
2022-08-23T16:00:54.729Z,95678.34
2022-08-23T16:06:07.869Z,95668.66
2022-08-23T16:11:21.144Z,95685.13
2022-08-23T16:16:34.985Z,95690.44
2022-08-23T16:21:38.439Z,95688.50
2022-08-23T16:26:51.891Z,95689.94
2022-08-23T16:32:05.266Z,95686.53
2022-08-23T16:37:09.652Z,95690.06
2022-08-23T16:42:12.909Z,95688.16
2022-08-23T16:47:16.188Z,95694.41
2022-08-23T16:52:20.625Z,95695.69
2022-08-23T16:57:32.077Z,95697.69
2022-08-23T17:02:35.406Z,95700.78
2022-08-23T17:07:39.458Z,95702.03
2022-08-23T17:12:42.670Z,95699.63
2022-08-23T17:17:50.285Z,95703.69
2022-08-23T17:22:53.232Z,95704.00
2022-08-23T17:27:56.170Z,95700.16
2022-08-23T17:32:59.913Z,95718.63
2022-08-23T17:38:03.065Z,95712.72
2022-08-23T17:43:05.742Z,95712.34
2022-08-23T17:48:08.494Z,95721.75
2022-08-23T17:53:12.510Z,95716.53
2022-08-23T17:58:15.440Z,95727.34
2022-08-23T18:03:20.543Z,95737.97
2022-08-23T18:08:23.382Z,95743.75
2022-08-23T18:13:26.876Z,95750.47
2022-08-23T18:18:30.374Z,95744.94
2022-08-23T18:23:33.113Z,95752.25
2022-08-23T18:28:35.871Z,95765.94
2022-08-23T18:33:46.871Z,95771.13
2022-08-23T18:38:50.478Z,95772.91
2022-08-23T18:43:54.086Z,95765.63
2022-08-23T18:48:57.461Z,95778.41
2022-08-23T18:54:00.684Z,95781.63
2022-08-23T18:59:03.489Z,95789.38
2022-08-23T19:04:06.218Z,95791.06
2022-08-23T19:09:08.967Z,95798.00
2022-08-23T19:14:15.694Z,95805.28
2022-08-23T19:19:18.732Z,95806.94
2022-08-23T19:24:23.713Z,95813.03
2022-08-23T19:29:36.428Z,95812.59
2022-08-23T19:34:41.215Z,95822.53
2022-08-23T19:39:54.083Z,95821.56
2022-08-23T19:44:56.854Z,95835.03
2022-08-23T19:49:59.586Z,95842.41
2022-08-23T19:55:13.446Z,95845.91
2022-08-23T20:00:31.271Z,95843.34
2022-08-23T20:05:45.319Z,95843.38
2022-08-23T20:10:48.216Z,95847.81
2022-08-23T20:15:55.547Z,95849.91
2022-08-23T20:21:05.961Z,95854.84
2022-08-23T20:26:08.948Z,95863.16
2022-08-23T20:31:11.826Z,95865.00
2022-08-23T20:36:14.562Z,95868.69
2022-08-23T20:41:17.564Z,95868.03
2022-08-23T20:46:20.798Z,95869.75
2022-08-23T20:51:23.696Z,95877.56
2022-08-23T20:56:28.169Z,95877.69
2022-08-23T21:01:31.028Z,95869.53
2022-08-23T21:06:34.080Z,95866.63
2022-08-23T21:11:36.831Z,95872.81
2022-08-23T21:16:39.539Z,95868.44
2022-08-23T21:21:42.442Z,95863.91
2022-08-23T21:26:45.476Z,95863.28
2022-08-23T21:31:48.292Z,95867.25
2022-08-23T21:36:51.448Z,95864.81
2022-08-23T21:41:56.068Z,95859.63
2022-08-23T21:46:59.688Z,95862.16
2022-08-23T21:52:02.504Z,95855.25
2022-08-23T21:57:05.923Z,95853.09
2022-08-23T22:02:08.722Z,95859.59
2022-08-23T22:07:11.812Z,95873.66
2022-08-23T22:12:14.793Z,95863.94
2022-08-23T22:17:18.005Z,95870.81
2022-08-23T22:22:21.452Z,95868.97
2022-08-23T22:27:24.329Z,95868.22
2022-08-23T22:32:27.070Z,95869.75
2022-08-23T22:37:30.154Z,95874.91
2022-08-23T22:42:33.609Z,95873.19
2022-08-23T22:47:38.792Z,95877.78
2022-08-23T22:52:42.427Z,95866.31
2022-08-23T22:57:45.566Z,95867.03
2022-08-23T23:02:48.277Z,95871.53
2022-08-23T23:08:08.660Z,95872.03
2022-08-23T23:13:11.418Z,95871.22
2022-08-23T23:18:14.712Z,95861.59
2022-08-23T23:23:17.455Z,95873.44
2022-08-23T23:28:20.182Z,95862.19
2022-08-23T23:33:23.266Z,95860.38
2022-08-23T23:38:25.970Z,95856.16
2022-08-23T23:43:28.708Z,95849.81
2022-08-23T23:48:31.427Z,95846.13
2022-08-23T23:53:34.349Z,95853.44
2022-08-23T23:58:38.532Z,95845.91
